sensor_id;sensor_type;location;lat;lon;timestamp;P1;durP1;ratioP1;P2;durP2;ratioP2
30020;SDS011;16861;52.294;7.760;2022-09-09T00:06:33;4.00;;;1.60;;
30020;SDS011;16861;52.294;7.760;2022-09-09T00:09:15;5.50;;;1.67;;
30020;SDS011;16861;52.294;7.760;2022-09-09T00:12:05;4.32;;;1.70;;
30020;SDS011;16861;52.294;7.760;2022-09-09T00:17:21;5.28;;;1.70;;
30020;SDS011;16861;52.294;7.760;2022-09-09T00:22:57;3.08;;;1.20;;
30020;SDS011;16861;52.294;7.760;2022-09-09T00:25:57;3.35;;;1.40;;
30020;SDS011;16861;52.294;7.760;2022-09-09T00:28:26;4.78;;;1.45;;
30020;SDS011;16861;52.294;7.760;2022-09-09T00:30:54;4.65;;;1.70;;
30020;SDS011;16861;52.294;7.760;2022-09-09T00:33:23;3.85;;;1.67;;
30020;SDS011;16861;52.294;7.760;2022-09-09T00:35:56;3.03;;;1.60;;
30020;SDS011;16861;52.294;7.760;2022-09-09T00:38:35;5.30;;;1.63;;
30020;SDS011;16861;52.294;7.760;2022-09-09T00:41:17;4.00;;;1.48;;
30020;SDS011;16861;52.294;7.760;2022-09-09T00:43:46;5.45;;;1.50;;
30020;SDS011;16861;52.294;7.760;2022-09-09T00:57:48;5.43;;;1.90;;
30020;SDS011;16861;52.294;7.760;2022-09-09T01:03:22;4.80;;;1.70;;
30020;SDS011;16861;52.294;7.760;2022-09-09T01:06:43;4.15;;;2.03;;
30020;SDS011;16861;52.294;7.760;2022-09-09T01:16:54;4.47;;;2.15;;
30020;SDS011;16861;52.294;7.760;2022-09-09T01:19:36;5.28;;;1.98;;
30020;SDS011;16861;52.294;7.760;2022-09-09T01:22:15;5.88;;;2.17;;
30020;SDS011;16861;52.294;7.760;2022-09-09T01:25:07;4.47;;;2.40;;
30020;SDS011;16861;52.294;7.760;2022-09-09T01:28:16;5.63;;;2.38;;
30020;SDS011;16861;52.294;7.760;2022-09-09T01:30:48;3.00;;;2.30;;
30020;SDS011;16861;52.294;7.760;2022-09-09T01:33:16;6.10;;;2.42;;
30020;SDS011;16861;52.294;7.760;2022-09-09T01:38:17;3.72;;;2.05;;
30020;SDS011;16861;52.294;7.760;2022-09-09T01:40:44;5.57;;;2.25;;
30020;SDS011;16861;52.294;7.760;2022-09-09T01:43:11;4.30;;;2.00;;
30020;SDS011;16861;52.294;7.760;2022-09-09T01:45:38;3.75;;;2.00;;
30020;SDS011;16861;52.294;7.760;2022-09-09T01:48:07;6.57;;;1.98;;
30020;SDS011;16861;52.294;7.760;2022-09-09T01:50:34;2.88;;;1.85;;
30020;SDS011;16861;52.294;7.760;2022-09-09T01:53:01;4.20;;;2.33;;
30020;SDS011;16861;52.294;7.760;2022-09-09T01:55:30;3.45;;;1.67;;
30020;SDS011;16861;52.294;7.760;2022-09-09T02:00:47;8.75;;;2.63;;
30020;SDS011;16861;52.294;7.760;2022-09-09T02:03:36;6.05;;;2.10;;
30020;SDS011;16861;52.294;7.760;2022-09-09T02:06:37;3.47;;;1.70;;
30020;SDS011;16861;52.294;7.760;2022-09-09T02:09:07;6.13;;;1.92;;
30020;SDS011;16861;52.294;7.760;2022-09-09T02:11:37;4.50;;;1.88;;
30020;SDS011;16861;52.294;7.760;2022-09-09T02:16:44;2.22;;;1.33;;
30020;SDS011;16861;52.294;7.760;2022-09-09T02:19:23;5.07;;;1.92;;
30020;SDS011;16861;52.294;7.760;2022-09-09T02:22:03;3.67;;;1.42;;
30020;SDS011;16861;52.294;7.760;2022-09-09T02:24:31;4.93;;;1.90;;
30020;SDS011;16861;52.294;7.760;2022-09-09T02:27:03;6.35;;;1.70;;
30020;SDS011;16861;52.294;7.760;2022-09-09T02:29:36;6.90;;;2.22;;
30020;SDS011;16861;52.294;7.760;2022-09-09T02:32:07;4.60;;;1.70;;
30020;SDS011;16861;52.294;7.760;2022-09-09T02:34:40;2.65;;;2.00;;
30020;SDS011;16861;52.294;7.760;2022-09-09T02:37:11;3.50;;;1.58;;
30020;SDS011;16861;52.294;7.760;2022-09-09T02:39:41;3.78;;;2.03;;
30020;SDS011;16861;52.294;7.760;2022-09-09T02:42:08;5.30;;;2.33;;
30020;SDS011;16861;52.294;7.760;2022-09-09T02:44:35;3.00;;;2.08;;
30020;SDS011;16861;52.294;7.760;2022-09-09T02:52:55;6.43;;;2.70;;
30020;SDS011;16861;52.294;7.760;2022-09-09T02:55:46;3.42;;;2.55;;
30020;SDS011;16861;52.294;7.760;2022-09-09T02:58:16;5.63;;;2.33;;
30020;SDS011;16861;52.294;7.760;2022-09-09T03:00:47;4.05;;;2.70;;
30020;SDS011;16861;52.294;7.760;2022-09-09T03:03:15;8.13;;;3.08;;
30020;SDS011;16861;52.294;7.760;2022-09-09T03:05:44;3.65;;;2.05;;
30020;SDS011;16861;52.294;7.760;2022-09-09T03:08:11;4.93;;;2.42;;
30020;SDS011;16861;52.294;7.760;2022-09-09T03:10:39;4.13;;;2.10;;
30020;SDS011;16861;52.294;7.760;2022-09-09T03:13:06;3.55;;;2.13;;
30020;SDS011;16861;52.294;7.760;2022-09-09T03:15:33;5.85;;;2.13;;
30020;SDS011;16861;52.294;7.760;2022-09-09T03:18:01;3.17;;;2.15;;
30020;SDS011;16861;52.294;7.760;2022-09-09T03:20:28;3.80;;;2.20;;
30020;SDS011;16861;52.294;7.760;2022-09-09T03:22:56;3.28;;;2.05;;
30020;SDS011;16861;52.294;7.760;2022-09-09T03:25:25;3.72;;;2.08;;
30020;SDS011;16861;52.294;7.760;2022-09-09T03:27:52;5.43;;;2.42;;
30020;SDS011;16861;52.294;7.760;2022-09-09T03:30:22;4.13;;;2.70;;
30020;SDS011;16861;52.294;7.760;2022-09-09T03:32:49;4.68;;;2.30;;
30020;SDS011;16861;52.294;7.760;2022-09-09T03:35:16;3.70;;;1.98;;
30020;SDS011;16861;52.294;7.760;2022-09-09T03:37:43;4.35;;;2.22;;
30020;SDS011;16861;52.294;7.760;2022-09-09T03:40:09;3.55;;;2.55;;
30020;SDS011;16861;52.294;7.760;2022-09-09T03:42:37;3.75;;;2.60;;
30020;SDS011;16861;52.294;7.760;2022-09-09T03:45:04;3.42;;;2.30;;
30020;SDS011;16861;52.294;7.760;2022-09-09T03:47:32;2.80;;;2.03;;
30020;SDS011;16861;52.294;7.760;2022-09-09T03:49:59;8.20;;;2.63;;
30020;SDS011;16861;52.294;7.760;2022-09-09T03:52:25;3.97;;;2.28;;
30020;SDS011;16861;52.294;7.760;2022-09-09T03:54:53;5.00;;;2.50;;
30020;SDS011;16861;52.294;7.760;2022-09-09T03:57:20;3.25;;;2.25;;
30020;SDS011;16861;52.294;7.760;2022-09-09T03:59:47;6.22;;;2.20;;
30020;SDS011;16861;52.294;7.760;2022-09-09T04:02:14;4.82;;;2.58;;
30020;SDS011;16861;52.294;7.760;2022-09-09T04:04:41;3.15;;;2.00;;
30020;SDS011;16861;52.294;7.760;2022-09-09T04:07:08;3.22;;;2.17;;
30020;SDS011;16861;52.294;7.760;2022-09-09T04:09:35;4.68;;;2.50;;
30020;SDS011;16861;52.294;7.760;2022-09-09T04:12:01;4.35;;;2.38;;
30020;SDS011;16861;52.294;7.760;2022-09-09T04:14:28;5.00;;;2.22;;
30020;SDS011;16861;52.294;7.760;2022-09-09T04:16:55;5.90;;;2.20;;
30020;SDS011;16861;52.294;7.760;2022-09-09T04:19:23;3.17;;;1.85;;
30020;SDS011;16861;52.294;7.760;2022-09-09T04:21:50;2.78;;;2.00;;
30020;SDS011;16861;52.294;7.760;2022-09-09T04:24:17;3.10;;;2.47;;
30020;SDS011;16861;52.294;7.760;2022-09-09T04:26:45;2.25;;;2.00;;
30020;SDS011;16861;52.294;7.760;2022-09-09T04:29:11;4.93;;;2.30;;
30020;SDS011;16861;52.294;7.760;2022-09-09T04:31:38;2.15;;;1.95;;
30020;SDS011;16861;52.294;7.760;2022-09-09T04:34:11;5.45;;;2.35;;
30020;SDS011;16861;52.294;7.760;2022-09-09T04:36:37;4.40;;;2.35;;
30020;SDS011;16861;52.294;7.760;2022-09-09T04:39:06;2.88;;;2.25;;
30020;SDS011;16861;52.294;7.760;2022-09-09T04:41:33;4.22;;;2.10;;
30020;SDS011;16861;52.294;7.760;2022-09-09T04:44:01;3.25;;;2.00;;
30020;SDS011;16861;52.294;7.760;2022-09-09T04:46:27;6.97;;;2.53;;
30020;SDS011;16861;52.294;7.760;2022-09-09T04:48:54;3.38;;;2.17;;
30020;SDS011;16861;52.294;7.760;2022-09-09T04:51:20;3.78;;;2.13;;
30020;SDS011;16861;52.294;7.760;2022-09-09T04:53:47;4.35;;;2.00;;
30020;SDS011;16861;52.294;7.760;2022-09-09T04:56:15;2.95;;;2.10;;
30020;SDS011;16861;52.294;7.760;2022-09-09T04:58:43;3.67;;;2.22;;
30020;SDS011;16861;52.294;7.760;2022-09-09T05:01:11;3.85;;;1.98;;
30020;SDS011;16861;52.294;7.760;2022-09-09T05:03:43;3.72;;;2.30;;
30020;SDS011;16861;52.294;7.760;2022-09-09T05:06:14;3.05;;;2.10;;
30020;SDS011;16861;52.294;7.760;2022-09-09T05:08:43;6.80;;;2.65;;
30020;SDS011;16861;52.294;7.760;2022-09-09T05:11:14;5.80;;;2.70;;
30020;SDS011;16861;52.294;7.760;2022-09-09T05:13:45;6.68;;;2.88;;
30020;SDS011;16861;52.294;7.760;2022-09-09T05:16:13;5.40;;;2.45;;
30020;SDS011;16861;52.294;7.760;2022-09-09T05:18:40;4.68;;;2.60;;
30020;SDS011;16861;52.294;7.760;2022-09-09T05:21:09;5.15;;;2.67;;
30020;SDS011;16861;52.294;7.760;2022-09-09T05:23:44;5.15;;;3.17;;
30020;SDS011;16861;52.294;7.760;2022-09-09T05:26:12;5.80;;;2.60;;
30020;SDS011;16861;52.294;7.760;2022-09-09T05:28:43;4.82;;;2.72;;
30020;SDS011;16861;52.294;7.760;2022-09-09T05:31:10;6.32;;;3.15;;
30020;SDS011;16861;52.294;7.760;2022-09-09T05:33:39;4.63;;;2.80;;
30020;SDS011;16861;52.294;7.760;2022-09-09T05:36:12;5.60;;;3.30;;
30020;SDS011;16861;52.294;7.760;2022-09-09T05:38:40;6.03;;;2.90;;
30020;SDS011;16861;52.294;7.760;2022-09-09T05:41:08;6.78;;;3.22;;
30020;SDS011;16861;52.294;7.760;2022-09-09T05:43:37;4.35;;;2.92;;
30020;SDS011;16861;52.294;7.760;2022-09-09T05:46:05;3.97;;;3.00;;
30020;SDS011;16861;52.294;7.760;2022-09-09T05:48:37;5.00;;;2.58;;
30020;SDS011;16861;52.294;7.760;2022-09-09T05:51:06;6.13;;;2.88;;
30020;SDS011;16861;52.294;7.760;2022-09-09T05:53:34;3.28;;;2.08;;
30020;SDS011;16861;52.294;7.760;2022-09-09T05:56:08;5.13;;;2.50;;
30020;SDS011;16861;52.294;7.760;2022-09-09T05:58:40;3.75;;;2.58;;
30020;SDS011;16861;52.294;7.760;2022-09-09T06:01:17;5.00;;;2.78;;
30020;SDS011;16861;52.294;7.760;2022-09-09T06:03:46;4.13;;;2.35;;
30020;SDS011;16861;52.294;7.760;2022-09-09T06:06:15;4.47;;;2.40;;
30020;SDS011;16861;52.294;7.760;2022-09-09T06:08:47;2.90;;;2.20;;
30020;SDS011;16861;52.294;7.760;2022-09-09T06:11:20;3.72;;;2.35;;
30020;SDS011;16861;52.294;7.760;2022-09-09T06:13:49;2.80;;;2.00;;
30020;SDS011;16861;52.294;7.760;2022-09-09T06:16:23;8.10;;;2.35;;
30020;SDS011;16861;52.294;7.760;2022-09-09T06:18:51;5.53;;;2.28;;
30020;SDS011;16861;52.294;7.760;2022-09-09T06:21:20;6.82;;;2.22;;
30020;SDS011;16861;52.294;7.760;2022-09-09T06:23:48;6.43;;;2.40;;
30020;SDS011;16861;52.294;7.760;2022-09-09T06:26:15;7.10;;;2.65;;
30020;SDS011;16861;52.294;7.760;2022-09-09T06:28:48;6.82;;;2.20;;
30020;SDS011;16861;52.294;7.760;2022-09-09T06:31:16;4.30;;;2.20;;
30020;SDS011;16861;52.294;7.760;2022-09-09T06:33:52;3.92;;;1.92;;
30020;SDS011;16861;52.294;7.760;2022-09-09T06:36:22;4.10;;;1.95;;
30020;SDS011;16861;52.294;7.760;2022-09-09T06:38:50;4.95;;;1.98;;
30020;SDS011;16861;52.294;7.760;2022-09-09T06:41:18;3.78;;;2.28;;
30020;SDS011;16861;52.294;7.760;2022-09-09T06:43:46;4.18;;;1.80;;
30020;SDS011;16861;52.294;7.760;2022-09-09T06:48:40;5.80;;;1.90;;
30020;SDS011;16861;52.294;7.760;2022-09-09T06:51:14;6.30;;;2.20;;
30020;SDS011;16861;52.294;7.760;2022-09-09T06:53:44;5.88;;;1.70;;
30020;SDS011;16861;52.294;7.760;2022-09-09T06:56:27;2.85;;;1.63;;
30020;SDS011;16861;52.294;7.760;2022-09-09T06:58:56;6.82;;;1.85;;
30020;SDS011;16861;52.294;7.760;2022-09-09T07:01:25;5.18;;;1.60;;
30020;SDS011;16861;52.294;7.760;2022-09-09T07:03:54;4.10;;;2.03;;
30020;SDS011;16861;52.294;7.760;2022-09-09T07:06:22;4.43;;;2.20;;
30020;SDS011;16861;52.294;7.760;2022-09-09T07:08:51;5.35;;;1.75;;
30020;SDS011;16861;52.294;7.760;2022-09-09T07:11:22;3.10;;;1.60;;
30020;SDS011;16861;52.294;7.760;2022-09-09T07:13:52;3.10;;;1.70;;
30020;SDS011;16861;52.294;7.760;2022-09-09T07:16:19;3.03;;;1.63;;
30020;SDS011;16861;52.294;7.760;2022-09-09T07:18:48;3.65;;;1.80;;
30020;SDS011;16861;52.294;7.760;2022-09-09T07:21:16;6.70;;;2.60;;
30020;SDS011;16861;52.294;7.760;2022-09-09T07:23:43;4.68;;;1.83;;
30020;SDS011;16861;52.294;7.760;2022-09-09T07:26:11;5.07;;;2.25;;
30020;SDS011;16861;52.294;7.760;2022-09-09T07:28:40;4.30;;;1.98;;
30020;SDS011;16861;52.294;7.760;2022-09-09T07:31:12;6.75;;;2.15;;
30020;SDS011;16861;52.294;7.760;2022-09-09T07:33:43;8.57;;;1.98;;
30020;SDS011;16861;52.294;7.760;2022-09-09T07:36:14;4.60;;;1.70;;
30020;SDS011;16861;52.294;7.760;2022-09-09T07:38:42;4.75;;;1.77;;
30020;SDS011;16861;52.294;7.760;2022-09-09T07:41:13;6.28;;;1.48;;
30020;SDS011;16861;52.294;7.760;2022-09-09T07:43:44;7.70;;;2.22;;
30020;SDS011;16861;52.294;7.760;2022-09-09T07:46:12;6.25;;;1.80;;
30020;SDS011;16861;52.294;7.760;2022-09-09T07:48:53;5.43;;;2.03;;
30020;SDS011;16861;52.294;7.760;2022-09-09T07:51:25;5.78;;;1.80;;
30020;SDS011;16861;52.294;7.760;2022-09-09T07:53:58;4.93;;;1.55;;
30020;SDS011;16861;52.294;7.760;2022-09-09T07:56:28;4.30;;;2.30;;
30020;SDS011;16861;52.294;7.760;2022-09-09T07:58:59;7.15;;;2.55;;
30020;SDS011;16861;52.294;7.760;2022-09-09T08:01:27;4.68;;;1.77;;
30020;SDS011;16861;52.294;7.760;2022-09-09T08:03:58;5.25;;;2.17;;
30020;SDS011;16861;52.294;7.760;2022-09-09T08:06:28;7.65;;;2.03;;
30020;SDS011;16861;52.294;7.760;2022-09-09T08:08:56;6.30;;;1.90;;
30020;SDS011;16861;52.294;7.760;2022-09-09T08:11:23;6.43;;;2.10;;
30020;SDS011;16861;52.294;7.760;2022-09-09T08:13:51;5.90;;;2.35;;
30020;SDS011;16861;52.294;7.760;2022-09-09T08:16:22;5.40;;;2.30;;
30020;SDS011;16861;52.294;7.760;2022-09-09T08:18:50;4.82;;;2.10;;
30020;SDS011;16861;52.294;7.760;2022-09-09T08:21:20;5.85;;;2.55;;
30020;SDS011;16861;52.294;7.760;2022-09-09T08:23:49;4.35;;;2.10;;
30020;SDS011;16861;52.294;7.760;2022-09-09T08:26:24;7.25;;;2.35;;
30020;SDS011;16861;52.294;7.760;2022-09-09T08:28:54;9.85;;;2.45;;
30020;SDS011;16861;52.294;7.760;2022-09-09T08:31:23;6.65;;;2.30;;
30020;SDS011;16861;52.294;7.760;2022-09-09T08:33:58;7.30;;;2.00;;
30020;SDS011;16861;52.294;7.760;2022-09-09T08:36:26;8.93;;;2.63;;
30020;SDS011;16861;52.294;7.760;2022-09-09T08:38:55;3.88;;;2.00;;
30020;SDS011;16861;52.294;7.760;2022-09-09T08:44:19;6.72;;;2.13;;
30020;SDS011;16861;52.294;7.760;2022-09-09T08:52:19;11.57;;;2.55;;
30020;SDS011;16861;52.294;7.760;2022-09-09T08:54:52;7.07;;;2.20;;
30020;SDS011;16861;52.294;7.760;2022-09-09T08:57:22;5.82;;;2.38;;
30020;SDS011;16861;52.294;7.760;2022-09-09T08:59:53;6.22;;;2.33;;
30020;SDS011;16861;52.294;7.760;2022-09-09T09:02:27;4.65;;;1.75;;
30020;SDS011;16861;52.294;7.760;2022-09-09T09:08:27;4.57;;;1.90;;
30020;SDS011;16861;52.294;7.760;2022-09-09T09:11:00;6.68;;;2.33;;
30020;SDS011;16861;52.294;7.760;2022-09-09T09:13:47;6.43;;;2.08;;
30020;SDS011;16861;52.294;7.760;2022-09-09T09:18:50;6.13;;;2.20;;
30020;SDS011;16861;52.294;7.760;2022-09-09T09:23:56;5.78;;;2.22;;
30020;SDS011;16861;52.294;7.760;2022-09-09T09:26:34;6.10;;;2.03;;
30020;SDS011;16861;52.294;7.760;2022-09-09T09:29:10;7.65;;;2.00;;
30020;SDS011;16861;52.294;7.760;2022-09-09T09:31:52;6.68;;;2.00;;
30020;SDS011;16861;52.294;7.760;2022-09-09T09:34:21;6.20;;;2.17;;
30020;SDS011;16861;52.294;7.760;2022-09-09T09:36:53;8.35;;;2.08;;
30020;SDS011;16861;52.294;7.760;2022-09-09T09:39:28;5.22;;;2.40;;
30020;SDS011;16861;52.294;7.760;2022-09-09T09:42:17;5.45;;;2.13;;
30020;SDS011;16861;52.294;7.760;2022-09-09T09:44:48;7.07;;;2.75;;
30020;SDS011;16861;52.294;7.760;2022-09-09T09:47:19;6.95;;;2.33;;
30020;SDS011;16861;52.294;7.760;2022-09-09T09:49:51;5.38;;;2.25;;
30020;SDS011;16861;52.294;7.760;2022-09-09T09:52:28;5.00;;;2.20;;
30020;SDS011;16861;52.294;7.760;2022-09-09T09:54:57;8.57;;;2.40;;
30020;SDS011;16861;52.294;7.760;2022-09-09T09:57:32;4.32;;;2.17;;
30020;SDS011;16861;52.294;7.760;2022-09-09T10:00:01;5.30;;;2.53;;
30020;SDS011;16861;52.294;7.760;2022-09-09T10:02:40;9.38;;;2.67;;
30020;SDS011;16861;52.294;7.760;2022-09-09T10:05:16;9.63;;;3.08;;
30020;SDS011;16861;52.294;7.760;2022-09-09T10:10:37;6.35;;;2.05;;
30020;SDS011;16861;52.294;7.760;2022-09-09T10:13:56;4.80;;;1.95;;
30020;SDS011;16861;52.294;7.760;2022-09-09T10:18:45;4.00;;;1.92;;
30020;SDS011;16861;52.294;7.760;2022-09-09T10:24:39;5.20;;;1.60;;
30020;SDS011;16861;52.294;7.760;2022-09-09T10:30:01;6.75;;;2.22;;
30020;SDS011;16861;52.294;7.760;2022-09-09T10:33:00;9.32;;;1.90;;
30020;SDS011;16861;52.294;7.760;2022-09-09T10:35:33;7.35;;;1.88;;
30020;SDS011;16861;52.294;7.760;2022-09-09T10:38:28;5.70;;;1.67;;
30020;SDS011;16861;52.294;7.760;2022-09-09T10:41:06;6.72;;;1.80;;
30020;SDS011;16861;52.294;7.760;2022-09-09T10:52:14;6.85;;;1.98;;
30020;SDS011;16861;52.294;7.760;2022-09-09T10:55:02;5.47;;;1.33;;
30020;SDS011;16861;52.294;7.760;2022-09-09T11:00:19;3.97;;;1.30;;
30020;SDS011;16861;52.294;7.760;2022-09-09T11:02:56;4.88;;;1.80;;
30020;SDS011;16861;52.294;7.760;2022-09-09T11:08:12;6.25;;;1.42;;
30020;SDS011;16861;52.294;7.760;2022-09-09T11:13:26;4.00;;;1.33;;
30020;SDS011;16861;52.294;7.760;2022-09-09T11:19:11;3.78;;;1.30;;
30020;SDS011;16861;52.294;7.760;2022-09-09T11:21:46;6.95;;;1.52;;
30020;SDS011;16861;52.294;7.760;2022-09-09T11:24:58;5.10;;;1.38;;
30020;SDS011;16861;52.294;7.760;2022-09-09T11:40:41;3.15;;;1.05;;
30020;SDS011;16861;52.294;7.760;2022-09-09T11:45:36;2.90;;;1.10;;
30020;SDS011;16861;52.294;7.760;2022-09-09T11:48:03;3.65;;;1.15;;
30020;SDS011;16861;52.294;7.760;2022-09-09T11:50:33;3.38;;;1.20;;
30020;SDS011;16861;52.294;7.760;2022-09-09T11:53:03;4.07;;;1.13;;
30020;SDS011;16861;52.294;7.760;2022-09-09T11:55:33;3.97;;;1.27;;
30020;SDS011;16861;52.294;7.760;2022-09-09T11:58:03;4.28;;;1.20;;
30020;SDS011;16861;52.294;7.760;2022-09-09T12:03:01;4.10;;;1.10;;
30020;SDS011;16861;52.294;7.760;2022-09-09T12:08:26;4.75;;;1.30;;
30020;SDS011;16861;52.294;7.760;2022-09-09T12:10:55;3.42;;;1.08;;
30020;SDS011;16861;52.294;7.760;2022-09-09T12:13:26;3.22;;;0.88;;
30020;SDS011;16861;52.294;7.760;2022-09-09T12:15:54;4.03;;;1.10;;
30020;SDS011;16861;52.294;7.760;2022-09-09T12:18:31;3.45;;;1.00;;
30020;SDS011;16861;52.294;7.760;2022-09-09T12:23:49;2.97;;;1.10;;
30020;SDS011;16861;52.294;7.760;2022-09-09T12:28:56;3.25;;;1.00;;
30020;SDS011;16861;52.294;7.760;2022-09-09T12:37:15;1.67;;;0.95;;
30020;SDS011;16861;52.294;7.760;2022-09-09T12:39:49;2.67;;;1.00;;
30020;SDS011;16861;52.294;7.760;2022-09-09T12:42:21;4.35;;;1.63;;
30020;SDS011;16861;52.294;7.760;2022-09-09T12:44:52;3.38;;;1.15;;
30020;SDS011;16861;52.294;7.760;2022-09-09T12:47:25;2.33;;;1.02;;
30020;SDS011;16861;52.294;7.760;2022-09-09T12:52:25;1.85;;;0.90;;
30020;SDS011;16861;52.294;7.760;2022-09-09T12:54:56;2.03;;;1.17;;
30020;SDS011;16861;52.294;7.760;2022-09-09T12:57:29;5.25;;;1.77;;
30020;SDS011;16861;52.294;7.760;2022-09-09T13:00:04;3.08;;;1.52;;
30020;SDS011;16861;52.294;7.760;2022-09-09T13:02:35;3.35;;;1.50;;
30020;SDS011;16861;52.294;7.760;2022-09-09T13:05:18;3.50;;;1.33;;
30020;SDS011;16861;52.294;7.760;2022-09-09T13:08:00;5.03;;;1.58;;
30020;SDS011;16861;52.294;7.760;2022-09-09T13:10:33;2.47;;;1.08;;
30020;SDS011;16861;52.294;7.760;2022-09-09T13:13:23;2.92;;;1.30;;
30020;SDS011;16861;52.294;7.760;2022-09-09T13:15:54;1.85;;;1.02;;
30020;SDS011;16861;52.294;7.760;2022-09-09T13:18:34;3.47;;;1.30;;
30020;SDS011;16861;52.294;7.760;2022-09-09T13:21:04;4.60;;;1.25;;
30020;SDS011;16861;52.294;7.760;2022-09-09T13:23:32;4.05;;;0.95;;
30020;SDS011;16861;52.294;7.760;2022-09-09T13:26:02;2.83;;;1.10;;
30020;SDS011;16861;52.294;7.760;2022-09-09T13:28:32;1.42;;;0.80;;
30020;SDS011;16861;52.294;7.760;2022-09-09T13:31:02;3.60;;;1.13;;
30020;SDS011;16861;52.294;7.760;2022-09-09T13:33:45;2.25;;;0.73;;
30020;SDS011;16861;52.294;7.760;2022-09-09T13:36:12;2.10;;;0.85;;
30020;SDS011;16861;52.294;7.760;2022-09-09T13:38:56;4.07;;;1.08;;
30020;SDS011;16861;52.294;7.760;2022-09-09T13:41:28;2.30;;;0.90;;
30020;SDS011;16861;52.294;7.760;2022-09-09T13:43:58;2.88;;;0.93;;
30020;SDS011;16861;52.294;7.760;2022-09-09T13:51:36;2.47;;;0.70;;
30020;SDS011;16861;52.294;7.760;2022-09-09T13:54:05;1.85;;;0.80;;
30020;SDS011;16861;52.294;7.760;2022-09-09T13:56:35;2.55;;;0.80;;
30020;SDS011;16861;52.294;7.760;2022-09-09T13:59:04;2.05;;;0.80;;
30020;SDS011;16861;52.294;7.760;2022-09-09T14:01:31;2.35;;;0.70;;
30020;SDS011;16861;52.294;7.760;2022-09-09T14:04:01;2.47;;;0.70;;
30020;SDS011;16861;52.294;7.760;2022-09-09T14:06:27;2.33;;;0.80;;
30020;SDS011;16861;52.294;7.760;2022-09-09T14:08:55;2.45;;;0.80;;
30020;SDS011;16861;52.294;7.760;2022-09-09T14:11:22;1.45;;;0.80;;
30020;SDS011;16861;52.294;7.760;2022-09-09T14:13:48;2.72;;;0.75;;
30020;SDS011;16861;52.294;7.760;2022-09-09T14:16:18;3.05;;;1.00;;
30020;SDS011;16861;52.294;7.760;2022-09-09T14:18:45;28.13;;;2.60;;
30020;SDS011;16861;52.294;7.760;2022-09-09T14:21:11;6.78;;;1.27;;
30020;SDS011;16861;52.294;7.760;2022-09-09T14:23:38;1.05;;;0.60;;
30020;SDS011;16861;52.294;7.760;2022-09-09T14:26:05;2.58;;;0.82;;
30020;SDS011;16861;52.294;7.760;2022-09-09T14:28:32;3.78;;;0.63;;
30020;SDS011;16861;52.294;7.760;2022-09-09T14:31:19;1.13;;;0.50;;
30020;SDS011;16861;52.294;7.760;2022-09-09T14:33:47;2.67;;;0.77;;
30020;SDS011;16861;52.294;7.760;2022-09-09T14:36:13;2.38;;;0.70;;
30020;SDS011;16861;52.294;7.760;2022-09-09T14:38:41;1.33;;;0.70;;
30020;SDS011;16861;52.294;7.760;2022-09-09T14:41:12;2.42;;;0.98;;
30020;SDS011;16861;52.294;7.760;2022-09-09T14:43:43;2.63;;;0.60;;
30020;SDS011;16861;52.294;7.760;2022-09-09T14:46:11;1.70;;;0.75;;
30020;SDS011;16861;52.294;7.760;2022-09-09T14:48:39;0.70;;;0.70;;
30020;SDS011;16861;52.294;7.760;2022-09-09T14:51:11;1.33;;;0.60;;
30020;SDS011;16861;52.294;7.760;2022-09-09T14:53:46;3.08;;;0.80;;
30020;SDS011;16861;52.294;7.760;2022-09-09T14:56:14;1.10;;;0.85;;
30020;SDS011;16861;52.294;7.760;2022-09-09T14:58:43;1.10;;;0.80;;
30020;SDS011;16861;52.294;7.760;2022-09-09T15:01:12;1.67;;;0.80;;
30020;SDS011;16861;52.294;7.760;2022-09-09T15:03:49;1.95;;;1.00;;
30020;SDS011;16861;52.294;7.760;2022-09-09T15:06:17;1.92;;;0.90;;
30020;SDS011;16861;52.294;7.760;2022-09-09T15:08:44;1.70;;;1.00;;
30020;SDS011;16861;52.294;7.760;2022-09-09T15:11:12;1.38;;;0.68;;
30020;SDS011;16861;52.294;7.760;2022-09-09T15:13:41;1.38;;;0.93;;
30020;SDS011;16861;52.294;7.760;2022-09-09T15:16:13;2.58;;;0.82;;
30020;SDS011;16861;52.294;7.760;2022-09-09T15:18:41;1.13;;;0.75;;
30020;SDS011;16861;52.294;7.760;2022-09-09T15:21:15;3.15;;;1.02;;
30020;SDS011;16861;52.294;7.760;2022-09-09T15:23:45;1.13;;;0.70;;
30020;SDS011;16861;52.294;7.760;2022-09-09T15:26:13;1.85;;;0.93;;
30020;SDS011;16861;52.294;7.760;2022-09-09T15:28:42;2.83;;;1.00;;
30020;SDS011;16861;52.294;7.760;2022-09-09T15:31:11;2.20;;;1.00;;
30020;SDS011;16861;52.294;7.760;2022-09-09T15:33:54;1.48;;;0.85;;
30020;SDS011;16861;52.294;7.760;2022-09-09T15:38:56;1.20;;;0.70;;
30020;SDS011;16861;52.294;7.760;2022-09-09T15:41:23;3.15;;;0.85;;
30020;SDS011;16861;52.294;7.760;2022-09-09T15:43:50;2.42;;;0.80;;
30020;SDS011;16861;52.294;7.760;2022-09-09T15:46:22;2.80;;;0.80;;
30020;SDS011;16861;52.294;7.760;2022-09-09T15:48:53;2.05;;;0.80;;
30020;SDS011;16861;52.294;7.760;2022-09-09T15:51:24;1.38;;;0.77;;
30020;SDS011;16861;52.294;7.760;2022-09-09T15:54:10;2.33;;;0.80;;
30020;SDS011;16861;52.294;7.760;2022-09-09T15:56:38;1.63;;;0.80;;
30020;SDS011;16861;52.294;7.760;2022-09-09T15:59:05;2.00;;;0.80;;
30020;SDS011;16861;52.294;7.760;2022-09-09T16:01:32;1.60;;;0.75;;
30020;SDS011;16861;52.294;7.760;2022-09-09T16:04:00;2.72;;;1.02;;
30020;SDS011;16861;52.294;7.760;2022-09-09T16:06:28;1.75;;;0.70;;
30020;SDS011;16861;52.294;7.760;2022-09-09T16:08:56;5.07;;;1.35;;
30020;SDS011;16861;52.294;7.760;2022-09-09T16:11:26;3.80;;;0.93;;
30020;SDS011;16861;52.294;7.760;2022-09-09T16:13:55;1.92;;;1.00;;
30020;SDS011;16861;52.294;7.760;2022-09-09T16:16:23;2.42;;;0.82;;
30020;SDS011;16861;52.294;7.760;2022-09-09T16:18:52;2.83;;;0.90;;
30020;SDS011;16861;52.294;7.760;2022-09-09T16:21:22;2.17;;;0.73;;
30020;SDS011;16861;52.294;7.760;2022-09-09T16:23:59;1.05;;;0.70;;
30020;SDS011;16861;52.294;7.760;2022-09-09T16:26:29;1.33;;;0.77;;
30020;SDS011;16861;52.294;7.760;2022-09-09T16:28:57;2.65;;;1.00;;
30020;SDS011;16861;52.294;7.760;2022-09-09T16:31:27;1.42;;;0.80;;
30020;SDS011;16861;52.294;7.760;2022-09-09T16:33:55;2.55;;;1.00;;
30020;SDS011;16861;52.294;7.760;2022-09-09T16:36:26;2.00;;;0.90;;
30020;SDS011;16861;52.294;7.760;2022-09-09T16:38:55;2.72;;;0.90;;
30020;SDS011;16861;52.294;7.760;2022-09-09T16:41:24;2.92;;;0.90;;
30020;SDS011;16861;52.294;7.760;2022-09-09T16:43:55;3.20;;;1.00;;
30020;SDS011;16861;52.294;7.760;2022-09-09T16:46:24;1.80;;;0.70;;
30020;SDS011;16861;52.294;7.760;2022-09-09T16:48:51;1.85;;;0.80;;
30020;SDS011;16861;52.294;7.760;2022-09-09T16:51:19;1.90;;;0.77;;
30020;SDS011;16861;52.294;7.760;2022-09-09T16:53:51;1.25;;;0.70;;
30020;SDS011;16861;52.294;7.760;2022-09-09T16:56:21;2.00;;;0.80;;
30020;SDS011;16861;52.294;7.760;2022-09-09T16:58:51;3.65;;;1.00;;
30020;SDS011;16861;52.294;7.760;2022-09-09T17:01:22;1.70;;;0.75;;
30020;SDS011;16861;52.294;7.760;2022-09-09T17:03:53;2.00;;;0.85;;
30020;SDS011;16861;52.294;7.760;2022-09-09T17:06:26;1.75;;;0.80;;
30020;SDS011;16861;52.294;7.760;2022-09-09T17:08:54;2.60;;;0.95;;
30020;SDS011;16861;52.294;7.760;2022-09-09T17:11:21;1.83;;;0.98;;
30020;SDS011;16861;52.294;7.760;2022-09-09T17:13:49;3.75;;;1.00;;
30020;SDS011;16861;52.294;7.760;2022-09-09T17:16:18;2.83;;;1.05;;
30020;SDS011;16861;52.294;7.760;2022-09-09T17:18:50;3.58;;;1.27;;
30020;SDS011;16861;52.294;7.760;2022-09-09T17:21:18;1.52;;;0.80;;
30020;SDS011;16861;52.294;7.760;2022-09-09T17:23:46;1.10;;;0.88;;
30020;SDS011;16861;52.294;7.760;2022-09-09T17:26:14;1.27;;;0.90;;
30020;SDS011;16861;52.294;7.760;2022-09-09T17:28:43;0.95;;;0.60;;
30020;SDS011;16861;52.294;7.760;2022-09-09T17:31:12;1.00;;;0.70;;
30020;SDS011;16861;52.294;7.760;2022-09-09T17:33:41;2.95;;;0.70;;